Time;durP1;ratioP1;P1;durP2;ratioP2;P2;SDS_P1;SDS_P2;PMS_P1;PMS_P2;Temp;Humidity;BMP_temperature;BMP_pressure;BME280_temperature;BME280_humidity;BME280_pressure;Samples;Min_cycle;Max_cycle;Signal;HPM_P1;HPM_P2
2022/11/02 00:01:40;;;;;;;12.00;1.77;;;11.10;99.90;;;;;;5089069;28;20070;-71
2022/11/02 00:04:06;;;;;;;9.45;1.50;;;11.10;99.90;;;;;;5067522;28;20107;-71
2022/11/02 00:06:32;;;;;;;6.43;1.40;;;11.10;99.90;;;;;;5071838;28;20032;-71
2022/11/02 00:08:57;;;;;;;11.07;1.45;;;11.00;99.90;;;;;;5097271;28;20043;-71
2022/11/02 00:11:23;;;;;;;7.18;1.00;;;11.00;99.90;;;;;;5088299;28;20066;-69
2022/11/02 00:13:49;;;;;;;12.32;1.30;;;11.10;99.90;;;;;;5088924;28;20077;-71
2022/11/02 00:16:17;;;;;;;10.13;1.30;;;11.10;99.90;;;;;;5089082;28;20040;-71
2022/11/02 00:18:45;;;;;;;10.68;1.95;;;11.10;99.90;;;;;;5085709;28;20083;-71
2022/11/02 00:21:11;;;;;;;11.50;1.45;;;11.10;99.90;;;;;;5088356;28;20032;-71
2022/11/02 00:23:36;;;;;;;11.70;1.40;;;11.10;99.90;;;;;;5065455;28;20060;-71
2022/11/02 00:26:02;;;;;;;8.20;1.35;;;11.10;99.90;;;;;;5070548;28;20028;-70
2022/11/02 00:28:29;;;;;;;11.00;1.70;;;11.10;99.90;;;;;;5086504;28;20054;-70
2022/11/02 00:30:55;;;;;;;7.55;1.25;;;11.20;99.90;;;;;;5063906;28;20055;-71
2022/11/02 00:33:20;;;;;;;8.82;1.65;;;11.10;99.90;;;;;;5067678;28;21742;-71
2022/11/02 00:35:46;;;;;;;8.98;1.60;;;11.10;99.90;;;;;;5071103;28;20040;-70
2022/11/02 00:38:12;;;;;;;10.65;1.80;;;11.10;99.90;;;;;;5082546;28;20107;-70
2022/11/02 00:40:37;;;;;;;9.45;1.67;;;11.10;99.90;;;;;;5090741;28;20036;-72
2022/11/02 00:43:04;;;;;;;9.63;1.35;;;11.20;99.90;;;;;;5078958;28;20471;-72
2022/11/02 00:45:30;;;;;;;7.68;0.93;;;11.20;99.90;;;;;;5065354;28;20496;-72
2022/11/02 00:47:56;;;;;;;10.65;1.70;;;11.20;99.90;;;;;;5087564;28;20036;-72
2022/11/02 00:50:21;;;;;;;12.90;1.27;;;11.20;99.90;;;;;;5084592;28;20035;-72
2022/11/02 00:52:47;;;;;;;5.88;1.20;;;11.10;99.90;;;;;;5087739;28;20028;-71
2022/11/02 00:55:14;;;;;;;7.53;1.38;;;11.10;99.90;;;;;;5087899;28;20040;-71
2022/11/02 00:57:40;;;;;;;8.15;1.05;;;11.20;99.90;;;;;;5084460;28;20039;-72
2022/11/02 01:00:08;;;;;;;9.13;1.15;;;11.10;99.90;;;;;;5089660;28;20032;-72
2022/11/02 01:02:34;;;;;;;8.70;1.02;;;11.10;99.90;;;;;;5090767;28;20040;-72
2022/11/02 01:05:00;;;;;;;11.35;1.40;;;11.10;99.90;;;;;;5090377;28;20378;-72
2022/11/02 01:07:27;;;;;;;10.82;1.58;;;11.10;99.90;;;;;;5077726;28;20119;-71
2022/11/02 01:09:53;;;;;;;9.68;1.02;;;11.10;99.90;;;;;;5091606;28;20736;-72
2022/11/02 01:12:18;;;;;;;9.13;1.40;;;11.10;99.90;;;;;;5068089;28;20131;-72
2022/11/02 01:14:48;;;;;;;8.27;1.73;;;11.10;99.90;;;;;;5069879;28;20034;-71
2022/11/02 01:17:16;;;;;;;5.88;0.82;;;11.10;99.90;;;;;;5078155;28;20034;-71
2022/11/02 01:19:41;;;;;;;9.52;0.93;;;11.10;99.90;;;;;;5096735;28;20028;-71
2022/11/02 01:22:07;;;;;;;8.52;1.27;;;11.20;99.90;;;;;;5069305;28;20077;-71
2022/11/02 01:24:32;;;;;;;9.93;1.08;;;11.10;99.90;;;;;;5067883;28;20032;-72
2022/11/02 01:26:58;;;;;;;10.15;1.60;;;11.10;99.90;;;;;;5069141;28;20258;-71
2022/11/02 01:29:24;;;;;;;10.40;1.20;;;11.10;99.90;;;;;;5076392;28;20605;-72
2022/11/02 01:31:52;;;;;;;8.05;1.08;;;11.00;99.90;;;;;;5087416;28;20039;-71
2022/11/02 01:34:18;;;;;;;7.53;1.15;;;11.00;99.90;;;;;;5081033;28;20295;-71
2022/11/02 01:36:47;;;;;;;10.02;1.20;;;11.00;99.90;;;;;;5087013;28;20486;-72
2022/11/02 01:39:14;;;;;;;7.05;1.10;;;11.00;99.90;;;;;;5067238;28;20028;-72
2022/11/02 01:41:40;;;;;;;6.28;1.10;;;10.90;99.90;;;;;;5086943;28;20036;-70
2022/11/02 01:44:25;;;;;;;10.10;1.08;;;10.90;99.90;;;;;;5084871;28;20038;-73
2022/11/02 01:46:55;;;;;;;7.47;0.98;;;10.90;99.90;;;;;;5067917;28;20121;-70
2022/11/02 01:49:21;;;;;;;3.70;0.82;;;10.90;99.90;;;;;;5086196;28;20114;-70
2022/11/02 01:51:55;;;;;;;5.03;1.08;;;10.90;99.90;;;;;;5066011;28;20043;-70
2022/11/02 01:54:24;;;;;;;9.52;1.13;;;10.90;99.90;;;;;;5085724;28;20040;-71
2022/11/02 01:56:55;;;;;;;8.07;0.90;;;10.90;99.90;;;;;;5087432;28;20036;-71
2022/11/02 01:59:26;;;;;;;9.68;1.20;;;10.80;99.90;;;;;;5086518;28;20050;-71
2022/11/02 02:01:53;;;;;;;11.35;1.67;;;10.80;99.90;;;;;;5084706;28;20085;-71
2022/11/02 02:04:19;;;;;;;8.20;1.10;;;10.80;99.90;;;;;;5085924;28;20958;-71
2022/11/02 02:06:45;;;;;;;10.75;1.58;;;10.80;99.90;;;;;;5067661;28;20036;-70
2022/11/02 02:09:13;;;;;;;8.25;1.17;;;10.80;99.90;;;;;;5088152;28;20077;-70
2022/11/02 02:11:40;;;;;;;8.25;1.20;;;10.80;99.90;;;;;;5087354;28;20039;-70
2022/11/02 02:14:17;;;;;;;8.95;1.73;;;10.80;99.90;;;;;;5078509;28;20028;-70
2022/11/02 02:17:01;;;;;;;9.30;1.20;;;10.80;99.90;;;;;;5087311;28;20852;-71
2022/11/02 02:19:45;;;;;;;9.15;1.35;;;10.80;99.90;;;;;;5088055;28;20032;-70
2022/11/02 02:22:25;;;;;;;10.40;1.15;;;10.80;99.90;;;;;;5086763;28;20038;-69
2022/11/02 02:25:16;;;;;;;8.27;1.33;;;10.70;99.90;;;;;;5068602;28;20063;-72
2022/11/02 02:28:00;;;;;;;6.97;1.55;;;10.70;99.90;;;;;;5086676;28;20108;-71
2022/11/02 02:30:28;;;;;;;10.05;1.30;;;10.70;99.90;;;;;;5069497;28;20035;-71
2022/11/02 02:33:16;;;;;;;14.52;2.00;;;10.70;99.90;;;;;;5085365;28;20036;-71
2022/11/02 02:35:52;;;;;;;9.30;1.60;;;10.60;99.90;;;;;;5071760;28;20044;-71
2022/11/02 02:38:45;;;;;;;11.43;1.60;;;10.60;99.90;;;;;;5083357;28;20062;-72
2022/11/02 02:41:13;;;;;;;10.02;1.90;;;10.70;99.90;;;;;;5075984;28;20485;-71
2022/11/02 02:43:55;;;;;;;11.00;1.40;;;10.70;99.90;;;;;;5078192;28;20040;-72
2022/11/02 02:46:26;;;;;;;10.45;1.33;;;10.70;99.90;;;;;;5066321;28;20031;-71
2022/11/02 02:48:55;;;;;;;10.68;1.45;;;10.80;99.90;;;;;;5067094;28;20100;-71
2022/11/02 02:51:26;;;;;;;11.88;1.80;;;10.80;99.90;;;;;;5082577;28;20036;-71
2022/11/02 02:54:02;;;;;;;9.05;1.23;;;10.80;99.90;;;;;;5086030;28;20032;-72
2022/11/02 02:56:34;;;;;;;7.97;1.23;;;10.70;99.90;;;;;;5082560;28;20036;-72
2022/11/02 02:59:04;;;;;;;11.18;1.60;;;10.70;99.90;;;;;;5081851;28;20036;-72
2022/11/02 03:01:30;;;;;;;;;;;10.70;99.90;;;;;;5067350;28;20035;-71
2022/11/02 03:03:56;;;;;;;9.73;1.58;;;10.80;99.90;;;;;;5073211;28;19919;-72
2022/11/02 03:06:28;;;;;;;11.93;1.85;;;10.80;99.90;;;;;;5065807;28;20199;-72
2022/11/02 03:09:15;;;;;;;9.73;1.52;;;10.70;99.90;;;;;;5066877;28;20115;-72
2022/11/02 03:11:52;;;;;;;7.95;1.35;;;10.70;99.90;;;;;;5078568;28;20063;-72
2022/11/02 03:14:45;;;;;;;11.93;2.00;;;10.80;99.90;;;;;;5084515;28;20043;-71
2022/11/02 03:17:17;;;;;;;12.82;1.48;;;10.80;99.90;;;;;;5084118;28;20048;-72
2022/11/02 03:20:03;;;;;;;11.15;1.40;;;10.80;99.90;;;;;;5084664;28;20036;-71
2022/11/02 03:22:47;;;;;;;12.43;2.03;;;10.80;99.90;;;;;;5080468;28;20024;-70
2022/11/02 03:25:17;;;;;;;14.82;1.95;;;10.70;99.90;;;;;;5084000;28;20032;-71
2022/11/02 03:27:54;;;;;;;9.23;1.50;;;10.70;99.90;;;;;;5084195;28;20051;-71
2022/11/02 03:30:26;;;;;;;11.18;1.65;;;10.80;99.90;;;;;;5082175;28;20035;-71
2022/11/02 03:33:08;;;;;;;12.32;1.60;;;10.70;99.90;;;;;;5084177;28;20085;-71
2022/11/02 03:35:36;;;;;;;11.48;1.73;;;10.70;99.90;;;;;;5059545;28;20059;-71
2022/11/02 03:38:16;;;;;;;12.77;2.10;;;10.60;99.90;;;;;;5065553;28;20031;-71
2022/11/02 03:40:46;;;;;;;11.18;1.80;;;10.70;99.90;;;;;;5079453;28;20115;-71
2022/11/02 03:43:13;;;;;;;10.27;1.48;;;10.80;99.90;;;;;;5085189;28;20032;-70
2022/11/02 03:45:45;;;;;;;14.18;1.85;;;10.80;99.90;;;;;;5066837;28;20036;-71
2022/11/02 03:48:13;;;;;;;8.02;1.55;;;10.70;99.90;;;;;;5084362;28;20051;-71
2022/11/02 03:50:43;;;;;;;10.00;1.55;;;10.70;99.90;;;;;;5085655;28;20124;-70
2022/11/02 03:53:15;;;;;;;14.00;1.70;;;10.70;99.90;;;;;;5065786;28;20068;-71
2022/11/02 03:55:46;;;;;;;10.10;1.63;;;10.60;99.90;;;;;;5064783;28;20076;-70
2022/11/02 03:58:12;;;;;;;11.27;1.90;;;10.60;99.90;;;;;;5045323;28;20441;-71
2022/11/02 04:00:51;;;;;;;15.57;2.33;;;10.60;99.90;;;;;;5062744;28;20037;-70
2022/11/02 04:03:19;;;;;;;13.60;1.63;;;10.60;99.90;;;;;;5063922;28;20130;-71
2022/11/02 04:05:44;;;;;;;10.32;2.13;;;10.80;99.90;;;;;;5044164;28;20029;-71
2022/11/02 04:08:19;;;;;;;10.45;1.85;;;10.80;99.90;;;;;;5058492;28;20032;-71
2022/11/02 04:16:15;;;;;;;13.80;2.15;;;10.70;99.90;;;;;;5068895;28;20089;-72
2022/11/02 04:21:25;;;;;;;14.65;1.80;;;10.70;99.90;;;;;;5058129;28;20039;-71
2022/11/02 04:26:36;;;;;;;12.10;2.15;;;10.70;99.90;;;;;;5069155;28;20032;-70
2022/11/02 04:29:01;;;;;;;10.48;1.52;;;10.60;99.90;;;;;;5063323;28;20044;-70
2022/11/02 04:31:27;;;;;;;19.63;1.77;;;10.60;99.90;;;;;;5051382;28;20620;-70
2022/11/02 04:33:52;;;;;;;11.18;1.48;;;10.60;99.90;;;;;;5050116;28;20569;-70
2022/11/02 04:36:18;;;;;;;11.10;1.83;;;10.50;99.90;;;;;;5068724;28;20040;-70
2022/11/02 04:38:44;;;;;;;9.73;1.30;;;10.50;99.90;;;;;;5048898;28;20032;-70
2022/11/02 04:44:03;;;;;;;12.75;1.80;;;10.50;99.90;;;;;;5049875;28;20086;-70
2022/11/02 04:46:31;;;;;;;14.55;1.70;;;10.50;99.90;;;;;;5064394;28;20039;-70
2022/11/02 04:48:56;;;;;;;12.80;2.10;;;10.40;99.90;;;;;;5067962;28;20028;-70
2022/11/02 04:51:24;;;;;;;12.70;1.60;;;10.40;99.90;;;;;;5066486;28;20039;-70
2022/11/02 04:53:51;;;;;;;11.25;1.80;;;10.40;99.90;;;;;;5067734;28;20742;-70
2022/11/02 04:56:17;;;;;;;14.05;1.70;;;10.30;99.90;;;;;;5068395;28;20032;-70
2022/11/02 04:58:46;;;;;;;12.00;1.77;;;10.30;99.90;;;;;;5067955;28;20035;-69
2022/11/02 05:01:14;;;;;;;15.60;1.92;;;10.20;99.90;;;;;;5066852;28;20035;-69
2022/11/02 05:03:40;;;;;;;11.25;2.03;;;10.20;99.90;;;;;;5061890;28;20406;-69
2022/11/02 05:06:06;;;;;;;9.57;1.70;;;10.20;99.90;;;;;;5067593;28;20032;-71
2022/11/02 05:08:31;;;;;;;10.63;1.70;;;10.10;99.90;;;;;;5067140;28;20032;-71
2022/11/02 05:10:58;;;;;;;9.27;1.60;;;10.10;99.90;;;;;;5066622;28;20581;-70
2022/11/02 05:13:24;;;;;;;12.07;1.90;;;10.10;99.90;;;;;;5061803;28;20039;-70
2022/11/02 05:15:50;;;;;;;7.00;1.50;;;10.20;99.90;;;;;;5048075;28;20109;-70
2022/11/02 05:18:16;;;;;;;13.27;1.90;;;10.20;99.90;;;;;;5048463;28;20040;-70
2022/11/02 05:20:42;;;;;;;10.13;1.40;;;10.10;99.90;;;;;;5067292;28;20060;-70
2022/11/02 05:23:07;;;;;;;12.93;1.90;;;10.10;99.90;;;;;;5068044;28;20032;-70
2022/11/02 05:25:33;;;;;;;13.55;1.80;;;10.10;99.90;;;;;;5066942;28;20612;-70
2022/11/02 05:27:59;;;;;;;11.55;1.60;;;10.10;99.90;;;;;;5067696;28;20033;-70
2022/11/02 05:30:25;;;;;;;13.13;1.73;;;10.10;99.90;;;;;;5063298;28;20035;-71
2022/11/02 05:32:56;;;;;;;13.95;1.70;;;10.10;99.90;;;;;;5067694;28;20072;-70
2022/11/02 05:35:21;;;;;;;9.13;1.48;;;10.10;99.90;;;;;;5068526;28;20113;-70
2022/11/02 05:37:47;;;;;;;13.57;2.25;;;10.00;99.90;;;;;;5047740;28;20032;-70
2022/11/02 05:40:13;;;;;;;12.10;1.70;;;10.00;99.90;;;;;;5067325;28;20032;-71
2022/11/02 05:42:38;;;;;;;14.55;2.08;;;10.00;99.90;;;;;;5068303;28;20052;-70
2022/11/02 05:45:04;;;;;;;13.68;1.70;;;10.00;99.90;;;;;;5050073;28;20630;-71
2022/11/02 05:47:30;;;;;;;9.38;1.70;;;10.00;99.90;;;;;;5048689;28;20033;-71
2022/11/02 05:49:55;;;;;;;13.38;2.00;;;10.10;99.90;;;;;;5049530;28;20041;-70
2022/11/02 05:52:21;;;;;;;10.05;1.50;;;10.00;99.90;;;;;;5057448;28;20178;-70
2022/11/02 05:54:47;;;;;;;13.40;1.70;;;10.00;99.90;;;;;;5066444;28;20071;-72
2022/11/02 05:57:13;;;;;;;10.57;1.65;;;10.00;99.90;;;;;;5067145;28;20035;-71
2022/11/02 05:59:38;;;;;;;10.80;1.52;;;10.00;99.90;;;;;;5067304;28;20085;-71
2022/11/02 06:02:04;;;;;;;13.68;2.30;;;10.00;99.90;;;;;;5066378;28;20481;-71
2022/11/02 06:04:29;;;;;;;12.63;1.63;;;10.00;99.90;;;;;;5046946;28;20043;-71
2022/11/02 06:06:55;;;;;;;14.15;1.70;;;10.00;99.90;;;;;;5067091;28;20485;-71
2022/11/02 06:09:20;;;;;;;11.25;1.75;;;10.00;99.90;;;;;;5044715;28;20033;-71
2022/11/02 06:11:46;;;;;;;15.13;1.90;;;9.90;99.90;;;;;;5044232;28;20102;-71
2022/11/02 06:14:11;;;;;;;12.30;1.80;;;9.90;99.90;;;;;;5066124;28;20397;-71
2022/11/02 06:16:37;;;;;;;13.10;1.80;;;9.90;99.90;;;;;;5064909;28;20113;-71
2022/11/02 06:19:03;;;;;;;12.38;1.73;;;9.90;99.90;;;;;;5065968;28;20031;-71
2022/11/02 06:21:28;;;;;;;10.20;1.70;;;9.80;99.90;;;;;;5063276;28;20587;-71
2022/11/02 06:23:54;;;;;;;11.45;1.80;;;9.80;99.90;;;;;;5057460;28;20036;-70
2022/11/02 06:26:19;;;;;;;10.57;1.85;;;9.80;99.90;;;;;;5040767;28;20025;-70
2022/11/02 06:28:45;;;;;;;9.18;1.48;;;9.70;99.90;;;;;;5046538;28;20067;-70
2022/11/02 06:31:11;;;;;;;9.10;1.65;;;9.60;99.90;;;;;;5065753;28;20040;-70
2022/11/02 06:33:37;;;;;;;15.68;2.15;;;9.60;99.90;;;;;;5065171;28;20036;-70
2022/11/02 06:36:02;;;;;;;16.38;2.35;;;9.50;99.90;;;;;;5065087;28;20039;-70
2022/11/02 06:38:28;;;;;;;9.15;1.48;;;9.50;99.90;;;;;;5065249;28;20032;-70
2022/11/02 06:41:00;;;;;;;12.32;1.85;;;9.60;99.90;;;;;;5063927;28;20024;-70
2022/11/02 06:43:26;;;;;;;11.65;2.00;;;9.60;99.90;;;;;;5064604;28;20136;-70
2022/11/02 06:45:58;;;;;;;15.80;1.80;;;9.60;99.90;;;;;;5047665;28;20135;-70
2022/11/02 06:48:25;;;;;;;10.20;1.58;;;9.70;99.90;;;;;;5066694;28;20059;-71
2022/11/02 06:50:51;;;;;;;15.43;1.67;;;9.70;99.90;;;;;;5065686;28;20039;-71
2022/11/02 06:53:17;;;;;;;14.23;1.65;;;9.70;99.90;;;;;;5051937;28;20115;-70
2022/11/02 06:55:43;;;;;;;8.65;1.58;;;9.70;99.90;;;;;;5066799;28;20137;-71
2022/11/02 06:58:09;;;;;;;12.02;2.08;;;9.70;99.90;;;;;;5046493;28;20028;-71
2022/11/02 07:00:35;;;;;;;14.80;2.05;;;9.70;99.90;;;;;;5065783;28;20029;-71
2022/11/02 07:03:08;;;;;;;19.58;2.28;;;9.70;99.90;;;;;;5047204;28;20462;-71
2022/11/02 07:05:35;;;;;;;11.98;2.22;;;9.80;99.90;;;;;;5065436;28;20054;-71
2022/11/02 07:08:01;;;;;;;16.80;2.40;;;9.90;99.90;;;;;;5057935;28;20036;-71
2022/11/02 07:10:28;;;;;;;16.58;2.08;;;10.00;99.90;;;;;;5048185;28;20463;-71
2022/11/02 07:12:54;;;;;;;16.30;1.77;;;10.00;99.90;;;;;;5044867;28;20653;-71
2022/11/02 07:15:22;;;;;;;16.45;2.30;;;10.10;99.90;;;;;;5047732;28;20040;-71
2022/11/02 07:17:47;;;;;;;16.52;2.20;;;10.10;99.90;;;;;;5066432;28;20075;-71
2022/11/02 07:20:14;;;;;;;15.35;1.92;;;10.20;99.90;;;;;;5065721;28;20066;-70
2022/11/02 07:22:40;;;;;;;10.52;1.90;;;10.20;99.90;;;;;;5066715;28;20465;-71
2022/11/02 07:25:06;;;;;;;13.05;2.25;;;10.30;99.90;;;;;;5065140;28;20389;-70
2022/11/02 07:27:36;;;;;;;13.70;2.22;;;10.30;99.90;;;;;;5046489;28;20028;-70
2022/11/02 07:30:02;;;;;;;16.00;2.50;;;10.40;99.90;;;;;;5065569;28;20670;-70
2022/11/02 07:32:28;;;;;;;13.98;2.15;;;10.50;99.90;;;;;;5059620;28;20036;-70
2022/11/02 07:34:53;;;;;;;15.13;2.17;;;10.50;99.90;;;;;;5046360;28;20063;-70
2022/11/02 07:37:19;;;;;;;17.85;2.70;;;10.50;99.90;;;;;;5063153;28;20104;-72
2022/11/02 07:39:45;;;;;;;13.43;1.83;;;10.50;99.90;;;;;;5046731;28;20040;-70
2022/11/02 07:42:10;;;;;;;14.52;1.85;;;10.60;99.90;;;;;;5049267;28;20496;-70
2022/11/02 07:44:36;;;;;;;11.25;2.03;;;10.70;99.90;;;;;;5064248;28;20051;-70
2022/11/02 07:47:01;;;;;;;20.27;2.67;;;10.80;99.90;;;;;;5069339;28;20036;-70
2022/11/02 07:49:27;;;;;;;16.52;2.22;;;11.00;99.90;;;;;;5069916;28;20029;-70
2022/11/02 07:51:54;;;;;;;16.92;2.08;;;11.20;99.90;;;;;;5066244;28;20071;-70
2022/11/02 07:54:19;;;;;;;12.32;1.70;;;11.40;99.90;;;;;;5052171;28;20433;-69
2022/11/02 07:56:45;;;;;;;15.68;1.60;;;11.70;99.90;;;;;;5051928;28;20816;-69
2022/11/02 07:59:11;;;;;;;11.35;1.63;;;12.00;99.90;;;;;;5069646;28;20056;-71
2022/11/02 08:01:37;;;;;;;13.13;2.28;;;12.40;99.90;;;;;;5048927;28;20039;-70
2022/11/02 08:04:03;;;;;;;17.20;2.20;;;12.60;99.90;;;;;;5069709;28;20024;-70
2022/11/02 08:06:29;;;;;;;9.90;1.52;;;12.90;99.90;;;;;;5067992;28;20036;-70
2022/11/02 08:08:54;;;;;;;13.65;1.52;;;13.10;99.90;;;;;;5064463;28;20033;-70
2022/11/02 08:11:20;;;;;;;17.25;1.77;;;13.30;99.90;;;;;;5049444;28;20036;-71
2022/11/02 08:13:45;;;;;;;14.35;1.70;;;13.30;99.90;;;;;;5065924;28;20662;-71
2022/11/02 08:16:11;;;;;;;15.73;1.98;;;13.50;99.90;;;;;;5067474;28;20040;-71
2022/11/02 08:18:36;;;;;;;12.77;2.30;;;13.60;99.90;;;;;;5053720;28;20441;-71
2022/11/02 08:21:03;;;;;;;13.02;2.05;;;13.80;99.90;;;;;;5067097;28;20033;-70
2022/11/02 08:23:28;;;;;;;13.20;1.65;;;14.00;99.90;;;;;;5049947;28;20058;-71
2022/11/02 08:25:56;;;;;;;14.30;3.55;;;14.30;99.90;;;;;;5069580;28;20032;-71
2022/11/02 08:28:25;;;;;;;15.88;3.60;;;14.60;99.90;;;;;;5069191;28;20398;-70
2022/11/02 08:30:51;;;;;;;14.20;2.00;;;14.70;99.90;;;;;;5068263;28;20036;-70
2022/11/02 08:33:18;;;;;;;13.25;2.03;;;14.80;99.90;;;;;;5068112;28;20029;-70
2022/11/02 08:35:45;;;;;;;9.90;1.60;;;14.90;99.90;;;;;;5050559;28;20066;-70
2022/11/02 08:38:11;;;;;;;12.73;2.15;;;15.10;99.90;;;;;;5069160;28;20086;-69
2022/11/02 08:40:37;;;;;;;11.82;1.88;;;15.40;99.90;;;;;;5068889;28;20028;-69
2022/11/02 08:43:06;;;;;;;12.35;1.73;;;15.60;99.60;;;;;;5061077;28;20429;-70
2022/11/02 08:45:32;;;;;;;12.75;1.98;;;15.80;99.20;;;;;;5068220;28;20029;-70
2022/11/02 08:47:58;;;;;;;9.68;1.65;;;15.70;99.80;;;;;;5055477;28;20055;-70
2022/11/02 08:50:25;;;;;;;15.52;2.17;;;15.30;99.90;;;;;;5047667;28;20854;-69
2022/11/02 08:52:51;;;;;;;16.98;2.47;;;15.10;99.90;;;;;;5067795;28;20103;-70
2022/11/02 08:55:16;;;;;;;12.05;1.77;;;14.90;99.90;;;;;;5067560;28;20093;-69
2022/11/02 08:57:50;;;;;;;11.68;1.63;;;14.70;99.90;;;;;;5067602;28;20129;-69
2022/11/02 09:00:17;;;;;;;16.08;2.13;;;14.60;99.90;;;;;;5068945;28;20036;-70
2022/11/02 09:02:43;;;;;;;13.65;1.98;;;14.50;99.90;;;;;;5066707;28;20644;-70
2022/11/02 09:05:10;;;;;;;12.85;1.83;;;14.50;99.90;;;;;;5068433;28;20119;-70
2022/11/02 09:07:36;;;;;;;13.88;2.00;;;14.50;99.90;;;;;;5050858;28;20024;-69
2022/11/02 09:10:02;;;;;;;11.23;1.77;;;14.70;99.90;;;;;;5067770;28;20040;-70
2022/11/02 09:12:28;;;;;;;11.93;1.90;;;14.90;99.90;;;;;;5066139;28;20560;-70
2022/11/02 09:14:54;;;;;;;17.27;2.60;;;15.00;99.90;;;;;;5067368;28;20049;-70
2022/11/02 09:17:19;;;;;;;14.25;2.53;;;15.00;99.90;;;;;;5068016;28;20190;-70
2022/11/02 09:19:45;;;;;;;11.70;1.80;;;15.40;99.90;;;;;;5068098;28;20043;-70
2022/11/02 09:22:10;;;;;;;14.00;2.15;;;15.60;99.90;;;;;;5068793;28;20055;-70
2022/11/02 09:24:36;;;;;;;11.23;1.73;;;15.40;99.90;;;;;;5069012;28;20085;-70
2022/11/02 09:27:02;;;;;;;12.40;1.73;;;15.30;99.90;;;;;;5068235;28;20114;-70
2022/11/02 09:29:27;;;;;;;12.48;2.28;;;15.40;99.90;;;;;;5067719;28;20028;-71
2022/11/02 09:31:53;;;;;;;9.70;1.80;;;15.20;99.90;;;;;;5067513;28;20035;-69
2022/11/02 09:34:19;;;;;;;15.73;1.90;;;15.20;99.90;;;;;;5068386;28;20060;-70
2022/11/02 09:36:44;;;;;;;16.85;2.10;;;15.50;99.90;;;;;;5068630;28;20032;-70
2022/11/02 09:39:10;;;;;;;12.43;2.08;;;15.70;99.90;;;;;;5068507;28;20033;-71
2022/11/02 09:41:38;;;;;;;15.70;2.30;;;16.10;99.90;;;;;;5049986;28;20039;-71
2022/11/02 09:44:44;;;;;;;15.60;2.30;;;16.40;99.90;;;;;;5067594;28;20033;-71
2022/11/02 09:47:11;;;;;;;14.05;2.28;;;16.40;99.90;;;;;;5067079;28;20052;-70
2022/11/02 09:49:41;;;;;;;16.80;2.58;;;16.00;99.90;;;;;;5065175;28;20033;-71
2022/11/02 09:52:14;;;;;;;16.70;2.13;;;15.60;99.90;;;;;;5066162;28;20520;-71
2022/11/02 09:54:44;;;;;;;16.90;2.83;;;15.20;99.90;;;;;;5065938;28;20040;-71
2022/11/02 09:57:31;;;;;;;15.55;2.78;;;15.00;99.90;;;;;;5047226;28;20469;-70
2022/11/02 09:59:58;;;;;;;13.57;2.88;;;14.70;99.90;;;;;;5060242;28;20036;-70
2022/11/02 10:02:41;;;;;;;17.55;2.35;;;14.40;99.90;;;;;;5043763;28;20036;-70
2022/11/02 10:05:13;;;;;;;13.75;2.15;;;14.50;99.90;;;;;;5048305;28;20493;-70
2022/11/02 10:07:50;;;;;;;16.13;2.65;;;14.60;99.90;;;;;;5047625;28;20368;-71
2022/11/02 10:10:32;;;;;;;15.40;2.78;;;14.80;99.90;;;;;;5028893;28;20769;-70
2022/11/02 10:13:13;;;;;;;16.60;3.03;;;14.70;99.90;;;;;;5047582;28;20029;-70
2022/11/02 10:15:44;;;;;;;14.52;2.22;;;15.00;99.90;;;;;;5047057;28;20032;-70
2022/11/02 10:18:22;;;;;;;15.43;2.88;;;15.20;99.90;;;;;;5046893;28;20043;-69
2022/11/02 10:21:00;;;;;;;18.33;3.00;;;15.30;99.90;;;;;;5047447;28;20082;-70
2022/11/02 10:23:44;;;;;;;21.27;3.40;;;15.50;99.90;;;;;;5046390;28;20033;-69
2022/11/02 10:26:36;;;;;;;20.17;3.63;;;15.70;99.90;;;;;;5047480;28;20033;-69
2022/11/02 10:29:25;;;;;;;18.40;2.65;;;15.70;99.90;;;;;;5046901;28;20069;-70
2022/11/02 10:31:51;;;;;;;19.30;3.22;;;15.90;99.90;;;;;;5047625;28;20029;-70
2022/11/02 10:34:23;;;;;;;15.65;3.38;;;16.30;99.90;;;;;;5045695;28;20490;-70
2022/11/02 10:37:01;;;;;;;18.38;2.90;;;16.40;99.90;;;;;;5046826;28;20032;-69
2022/11/02 10:39:34;;;;;;;17.05;2.35;;;16.50;99.90;;;;;;5047143;28;20091;-70
2022/11/02 10:42:31;;;;;;;13.88;2.90;;;16.50;99.90;;;;;;5047057;28;20040;-69
2022/11/02 10:45:40;;;;;;;15.57;3.15;;;16.50;99.90;;;;;;5047199;28;20045;-69
2022/11/02 10:48:30;;;;;;;20.63;3.20;;;16.60;99.90;;;;;;5047478;28;20037;-69
2022/11/02 10:51:09;;;;;;;16.70;2.65;;;16.40;99.90;;;;;;5029458;28;20060;-69
2022/11/02 10:53:43;;;;;;;14.27;2.88;;;16.60;99.90;;;;;;5047348;28;20071;-69
2022/11/02 10:56:29;;;;;;;16.05;2.67;;;16.80;99.90;;;;;;5047438;28;20064;-71
2022/11/02 10:59:08;;;;;;;16.27;2.40;;;16.90;99.90;;;;;;5047451;28;20024;-70
2022/11/02 11:01:34;;;;;;;14.98;3.20;;;16.60;99.90;;;;;;5045583;28;20033;-70
2022/11/02 11:04:05;;;;;;;21.38;3.47;;;16.60;99.90;;;;;;5046931;28;20402;-70
2022/11/02 11:06:39;;;;;;;14.68;2.90;;;16.70;99.90;;;;;;5039937;28;20078;-70
2022/11/02 11:09:14;;;;;;;16.05;2.33;;;16.90;99.90;;;;;;5055788;28;20039;-71
2022/11/02 11:11:40;;;;;;;17.35;2.45;;;17.10;99.90;;;;;;5067014;28;20029;-70
2022/11/02 11:14:15;;;;;;;14.48;2.60;;;17.10;99.90;;;;;;5049695;28;20558;-71
2022/11/02 11:16:44;;;;;;;20.52;2.28;;;16.90;99.90;;;;;;5046670;28;20048;-71
2022/11/02 11:19:22;;;;;;;13.37;2.40;;;16.60;99.90;;;;;;5066415;28;20040;-70
2022/11/02 11:21:49;;;;;;;13.13;2.28;;;16.30;99.90;;;;;;5069566;28;20262;-70
2022/11/02 11:24:24;;;;;;;17.00;2.75;;;16.20;99.90;;;;;;5070752;28;20584;-71
2022/11/02 11:27:04;;;;;;;18.92;2.95;;;16.10;99.90;;;;;;5051129;28;20032;-69
2022/11/02 11:29:31;;;;;;;15.93;1.95;;;16.00;99.90;;;;;;5051253;28;20098;-70
2022/11/02 11:31:58;;;;;;;16.67;2.13;;;16.00;99.90;;;;;;5051380;28;20029;-69
2022/11/02 11:34:30;;;;;;;13.90;2.22;;;16.00;99.90;;;;;;5050703;28;20060;-69
2022/11/02 11:37:08;;;;;;;12.23;2.58;;;16.00;99.90;;;;;;5050361;28;20082;-68
2022/11/02 11:39:36;;;;;;;14.73;2.72;;;16.00;99.90;;;;;;5047847;28;20029;-70
2022/11/02 11:42:03;;;;;;;13.45;2.40;;;16.00;99.90;;;;;;5050740;28;20028;-70
2022/11/02 11:44:30;;;;;;;18.13;2.55;;;16.00;99.90;;;;;;5051040;28;20052;-68
2022/11/02 11:46:57;;;;;;;16.30;2.67;;;16.00;99.90;;;;;;5050886;28;20059;-70
2022/11/02 11:49:35;;;;;;;10.43;2.33;;;15.90;99.90;;;;;;5050640;28;20095;-70
2022/11/02 11:52:01;;;;;;;19.15;2.85;;;15.80;99.90;;;;;;5050210;28;20041;-70
2022/11/02 11:54:31;;;;;;;22.33;2.83;;;15.70;99.90;;;;;;5049950;28;20029;-69
2022/11/02 11:57:27;;;;;;;13.60;2.47;;;15.60;99.90;;;;;;5048539;28;20100;-69
2022/11/02 11:59:57;;;;;;;12.68;2.05;;;15.70;99.90;;;;;;5048118;28;20055;-69
2022/11/02 12:02:31;;;;;;;15.93;2.38;;;16.00;99.90;;;;;;5048454;28;20029;-69
2022/11/02 12:05:00;;;;;;;16.52;2.40;;;16.30;99.90;;;;;;5032072;28;20508;-70
2022/11/02 12:07:56;;;;;;;16.30;2.20;;;16.60;99.90;;;;;;5050157;28;20505;-69
2022/11/02 12:10:32;;;;;;;17.60;2.20;;;16.60;99.90;;;;;;5032836;28;20039;-69
2022/11/02 12:13:22;;;;;;;15.13;2.30;;;16.40;99.90;;;;;;5049693;28;20029;-70
2022/11/02 12:16:36;;;;;;;13.20;2.00;;;16.10;99.90;;;;;;5031329;28;20072;-69
2022/11/02 12:19:29;;;;;;;19.73;2.35;;;15.90;99.90;;;;;;5042918;28;20187;-68
2022/11/02 12:22:10;;;;;;;16.73;3.03;;;15.90;99.90;;;;;;5049643;28;20029;-70
2022/11/02 12:24:52;;;;;;;16.70;2.60;;;15.90;99.90;;;;;;5050228;28;20106;-68
2022/11/02 12:27:50;;;;;;;14.63;2.33;;;15.90;99.90;;;;;;5031607;28;20068;-69
2022/11/02 12:30:20;;;;;;;14.13;2.30;;;15.90;99.90;;;;;;5049886;28;20087;-69
2022/11/02 12:33:00;;;;;;;16.05;2.88;;;15.70;99.90;;;;;;5048596;28;20393;-69
2022/11/02 12:35:38;;;;;;;16.15;2.33;;;15.70;99.90;;;;;;5049538;28;20037;-69
2022/11/02 12:38:21;;;;;;;15.27;2.50;;;15.60;99.90;;;;;;5050018;28;20036;-71
2022/11/02 12:41:06;;;;;;;14.20;1.90;;;15.60;99.90;;;;;;5031565;28;20029;-70
2022/11/02 12:43:44;;;;;;;19.77;2.60;;;15.60;99.90;;;;;;5049092;28;20048;-69
2022/11/02 12:46:15;;;;;;;19.08;3.42;;;15.50;99.90;;;;;;5047927;28;20052;-69
2022/11/02 12:49:03;;;;;;;14.20;2.47;;;15.30;99.90;;;;;;5031418;28;20057;-69
2022/11/02 12:51:49;;;;;;;21.27;3.47;;;15.20;99.90;;;;;;5049388;28;20083;-68
2022/11/02 12:54:20;;;;;;;21.83;3.42;;;15.10;99.90;;;;;;5049014;28;20045;-69
2022/11/02 12:56:55;;;;;;;16.17;2.78;;;15.10;99.90;;;;;;5031256;28;20502;-70
2022/11/02 12:59:31;;;;;;;23.38;3.40;;;15.20;99.90;;;;;;5051270;28;20061;-69
2022/11/02 13:02:07;;;;;;;18.02;3.10;;;15.20;99.90;;;;;;5050796;28;20071;-70
2022/11/02 13:04:55;;;;;;;19.17;3.22;;;15.20;99.90;;;;;;5069275;28;20397;-69
2022/11/02 13:07:48;;;;;;;21.60;3.22;;;15.20;99.90;;;;;;5069134;28;20039;-68
2022/11/02 13:10:19;;;;;;;23.63;3.47;;;15.20;99.90;;;;;;5069010;28;20029;-69
2022/11/02 13:12:50;;;;;;;22.25;3.65;;;15.10;99.90;;;;;;5068735;28;20063;-71